createdAt,value
2022-12-01T00:01:57.421Z,7.87
2022-12-01T00:04:27.085Z,8.50
2022-12-01T00:06:59.241Z,8.60
2022-12-01T00:09:41.249Z,7.10
2022-12-01T00:12:10.805Z,8.23
2022-12-01T00:14:40.296Z,8.75
2022-12-01T00:17:10.612Z,8.40
2022-12-01T00:19:40.126Z,8.17
2022-12-01T00:22:12.241Z,7.53
2022-12-01T00:24:41.792Z,9.23
2022-12-01T00:27:11.280Z,9.07
2022-12-01T00:29:40.883Z,8.07
2022-12-01T00:32:10.502Z,8.13
2022-12-01T00:34:40.886Z,9.18
2022-12-01T00:37:12.997Z,7.60
2022-12-01T00:39:42.619Z,8.23
2022-12-01T00:42:13.582Z,8.20
2022-12-01T00:44:43.464Z,8.63
2022-12-01T00:47:12.934Z,7.90
2022-12-01T00:49:42.494Z,7.63
2022-12-01T00:52:15.007Z,8.07
2022-12-01T00:54:44.641Z,7.67
2022-12-01T00:57:14.307Z,7.10
2022-12-01T00:59:44.003Z,7.90
2022-12-01T01:02:13.602Z,7.17
2022-12-01T01:04:43.211Z,8.02
2022-12-01T01:07:15.332Z,11.25
2022-12-01T01:09:45.062Z,13.20
2022-12-01T01:12:14.573Z,11.37
2022-12-01T01:14:44.784Z,8.57
2022-12-01T01:17:14.335Z,8.50
2022-12-01T01:19:43.895Z,7.67
2022-12-01T01:22:16.089Z,7.90
2022-12-01T01:24:45.630Z,7.50
2022-12-01T01:27:15.158Z,8.20
2022-12-01T01:29:45.044Z,7.60
2022-12-01T01:32:14.631Z,7.90
2022-12-01T01:34:44.163Z,7.50
2022-12-01T01:37:16.328Z,8.20
2022-12-01T01:39:46.101Z,7.90
2022-12-01T01:42:15.841Z,7.97
2022-12-01T01:44:53.103Z,8.07
2022-12-01T01:47:25.463Z,8.20
2022-12-01T01:49:55.673Z,8.53
2022-12-01T01:52:28.063Z,7.50
2022-12-01T01:54:58.626Z,8.07
2022-12-01T01:57:29.163Z,7.87
2022-12-01T02:00:00.903Z,7.00
2022-12-01T02:02:30.813Z,7.70
2022-12-01T02:05:02.030Z,8.53
2022-12-01T02:07:34.243Z,7.70
2022-12-01T02:10:03.905Z,7.00
2022-12-01T02:12:51.264Z,8.30
2022-12-01T02:15:27.854Z,8.53
2022-12-01T02:18:02.159Z,8.33
2022-12-01T02:20:58.219Z,7.70
2022-12-01T02:23:40.108Z,9.00
2022-12-01T02:26:19.150Z,7.97
2022-12-01T02:28:59.497Z,7.97
2022-12-01T02:31:33.854Z,7.87
2022-12-01T02:34:07.159Z,7.33
2022-12-01T02:36:38.163Z,8.47
2022-12-01T02:39:09.392Z,7.60
2022-12-01T02:41:41.365Z,8.10
2022-12-01T02:44:14.411Z,9.03
2022-12-01T02:46:48.581Z,8.97
2022-12-01T02:49:19.945Z,7.23
2022-12-01T02:51:51.481Z,7.63
2022-12-01T02:54:21.678Z,7.37
2022-12-01T02:56:54.574Z,7.33
2022-12-01T02:59:24.168Z,8.50
2022-12-01T03:02:01.476Z,8.13
2022-12-01T03:04:38.889Z,7.83
2022-12-01T03:07:13.654Z,7.90
2022-12-01T03:09:49.135Z,8.23
2022-12-01T03:12:25.648Z,7.87
2022-12-01T03:15:01.772Z,7.27
2022-12-01T03:17:38.169Z,7.67
2022-12-01T03:20:09.950Z,6.95
2022-12-01T03:22:42.365Z,7.93
2022-12-01T03:25:13.843Z,7.40
2022-12-01T03:28:13.524Z,7.63
2022-12-01T03:30:34.900Z,7.13
2022-12-01T03:33:09.820Z,7.93
2022-12-01T03:35:41.984Z,7.80
2022-12-01T03:38:15.366Z,7.53
2022-12-01T03:40:45.172Z,7.57
2022-12-01T03:43:17.243Z,7.27
2022-12-01T03:45:50.333Z,7.70
2022-12-01T03:48:22.718Z,7.37
2022-12-01T03:50:58.115Z,6.87
2022-12-01T03:53:29.794Z,7.17
2022-12-01T03:56:01.358Z,7.47
2022-12-01T03:58:34.366Z,8.70
2022-12-01T04:01:05.019Z,7.57
2022-12-01T04:03:37.331Z,7.30
2022-12-01T04:06:07.348Z,7.00
2022-12-01T04:08:37.658Z,7.33
2022-12-01T04:11:32.501Z,7.20
2022-12-01T04:13:59.946Z,7.00
2022-12-01T04:16:29.536Z,7.27
2022-12-01T04:19:01.796Z,7.40
2022-12-01T04:21:31.412Z,7.37
2022-12-01T04:24:04.132Z,7.70
2022-12-01T04:26:35.039Z,7.23
2022-12-01T04:29:05.527Z,7.53
2022-12-01T04:31:35.220Z,8.10
2022-12-01T04:34:07.445Z,7.70
2022-12-01T04:36:37.911Z,7.43
2022-12-01T04:39:07.768Z,6.47
2022-12-01T04:41:37.224Z,7.63
2022-12-01T04:44:06.740Z,6.73
2022-12-01T04:46:36.438Z,6.90
2022-12-01T04:49:08.653Z,7.73
2022-12-01T04:51:38.991Z,6.80
2022-12-01T04:54:08.576Z,6.50
2022-12-01T04:56:38.106Z,7.07
2022-12-01T04:59:07.942Z,7.30
2022-12-01T05:01:37.793Z,6.93
2022-12-01T05:04:10.129Z,6.83
2022-12-01T05:06:39.693Z,6.90
2022-12-01T05:09:13.160Z,7.90
2022-12-01T05:11:46.719Z,7.57
2022-12-01T05:14:16.232Z,7.03
2022-12-01T05:16:45.737Z,8.37
2022-12-01T05:19:30.229Z,8.10
2022-12-01T05:21:59.683Z,7.60
2022-12-01T05:24:29.129Z,8.00
2022-12-01T05:26:58.641Z,8.53
2022-12-01T05:29:28.091Z,8.47
2022-12-01T05:31:57.707Z,8.13
2022-12-01T05:34:30.396Z,7.57
2022-12-01T05:36:59.960Z,7.27
2022-12-01T05:39:29.478Z,7.97
2022-12-01T05:41:59.000Z,7.40
2022-12-01T05:44:28.422Z,7.23
2022-12-01T05:46:57.882Z,7.13
2022-12-01T05:49:29.961Z,7.70
2022-12-01T05:51:59.496Z,7.23
2022-12-01T05:54:29.072Z,7.33
2022-12-01T05:56:58.769Z,7.77
2022-12-01T05:59:28.330Z,8.03
2022-12-01T06:01:57.867Z,8.23
2022-12-01T06:04:30.068Z,7.50
2022-12-01T06:06:59.678Z,7.57
2022-12-01T06:09:29.157Z,7.97
2022-12-01T06:11:58.773Z,7.10
2022-12-01T06:14:28.189Z,7.07
2022-12-01T06:16:57.688Z,8.63
2022-12-01T06:19:27.178Z,8.07
2022-12-01T06:21:59.673Z,7.37
2022-12-01T06:24:29.269Z,7.53
2022-12-01T06:26:58.699Z,8.07
2022-12-01T06:29:28.158Z,7.13
2022-12-01T06:31:57.655Z,7.70
2022-12-01T06:34:27.171Z,7.77
2022-12-01T06:36:59.510Z,7.30
2022-12-01T06:39:29.132Z,7.50
2022-12-01T06:41:58.579Z,8.13
2022-12-01T06:44:28.045Z,7.33
2022-12-01T06:46:57.538Z,8.10
2022-12-01T06:49:26.973Z,9.20
2022-12-01T06:52:00.947Z,8.20
2022-12-01T06:54:30.692Z,8.37
2022-12-01T06:57:00.299Z,8.43
2022-12-01T06:59:29.924Z,8.87
2022-12-01T07:02:00.349Z,9.10
2022-12-01T07:04:29.850Z,8.33
2022-12-01T07:07:01.918Z,9.17
2022-12-01T07:09:31.444Z,8.17
2022-12-01T07:12:00.856Z,8.53
2022-12-01T07:14:31.718Z,8.13
2022-12-01T07:17:01.391Z,8.60
2022-12-01T07:19:30.928Z,8.40
2022-12-01T07:22:03.010Z,8.23
2022-12-01T07:24:32.580Z,9.07
2022-12-01T07:27:02.092Z,8.73
2022-12-01T07:29:31.715Z,8.67
2022-12-01T07:32:01.344Z,8.47
2022-12-01T07:34:31.060Z,9.60
2022-12-01T07:37:03.216Z,8.63
2022-12-01T07:39:32.889Z,9.10
2022-12-01T07:42:02.407Z,8.93
2022-12-01T07:44:31.905Z,8.33
2022-12-01T07:47:01.424Z,7.93
2022-12-01T07:49:30.980Z,9.20
2022-12-01T07:52:03.022Z,9.37
2022-12-01T07:54:32.529Z,8.97
2022-12-01T07:57:02.043Z,9.23
2022-12-01T07:59:32.023Z,7.70
2022-12-01T08:02:01.661Z,9.17
2022-12-01T08:04:31.148Z,8.67
2022-12-01T08:07:03.269Z,8.67
2022-12-01T08:09:32.906Z,8.60
2022-12-01T08:12:02.391Z,8.73
2022-12-01T08:14:31.901Z,10.03
2022-12-01T08:17:01.398Z,8.67
2022-12-01T08:19:31.046Z,7.63
2022-12-01T08:22:03.226Z,8.43
2022-12-01T08:24:32.875Z,8.20
2022-12-01T08:27:02.319Z,9.30
2022-12-01T08:29:31.801Z,7.97
2022-12-01T08:32:01.255Z,8.00
2022-12-01T08:34:30.792Z,8.07
2022-12-01T08:37:00.400Z,8.03
2022-12-01T08:39:32.500Z,8.82
2022-12-01T08:42:02.014Z,8.25
2022-12-01T08:44:31.516Z,8.83
2022-12-01T08:47:01.004Z,7.57
2022-12-01T08:49:30.560Z,8.20
2022-12-01T08:52:00.003Z,8.80
2022-12-01T08:54:32.274Z,8.95
2022-12-01T08:57:01.799Z,8.25
2022-12-01T08:59:31.317Z,8.43
2022-12-01T09:02:06.661Z,7.43
2022-12-01T09:04:36.618Z,8.40
2022-12-01T09:07:06.227Z,9.50
2022-12-01T09:09:38.749Z,8.95
2022-12-01T09:12:09.235Z,8.50
2022-12-01T09:14:39.913Z,8.13
2022-12-01T09:17:09.842Z,7.70
2022-12-01T09:19:39.314Z,8.18
2022-12-01T09:22:08.779Z,8.30
2022-12-01T09:24:41.136Z,9.15
2022-12-01T09:27:13.313Z,8.20
2022-12-01T09:29:42.900Z,9.00
2022-12-01T09:32:12.369Z,8.20
2022-12-01T09:34:42.012Z,8.55
2022-12-01T09:37:11.517Z,8.48
2022-12-01T09:39:43.708Z,7.80
2022-12-01T09:42:16.324Z,8.38
2022-12-01T09:44:48.315Z,8.93
2022-12-01T09:47:20.274Z,8.18
2022-12-01T09:49:54.456Z,9.00
2022-12-01T09:52:24.793Z,9.75
2022-12-01T09:54:57.979Z,7.65
2022-12-01T09:57:31.002Z,8.27
2022-12-01T10:00:02.469Z,7.70
2022-12-01T10:02:43.746Z,8.65
2022-12-01T10:05:18.268Z,7.70
2022-12-01T10:07:50.196Z,8.00
2022-12-01T10:10:26.352Z,8.90
2022-12-01T10:12:56.005Z,8.32
2022-12-01T10:15:29.119Z,9.07
2022-12-01T10:18:03.924Z,7.85
2022-12-01T10:20:37.208Z,7.72
2022-12-01T10:23:19.297Z,8.57
2022-12-01T10:25:54.976Z,7.75
2022-12-01T10:28:36.810Z,8.88
2022-12-01T10:31:08.033Z,7.72
2022-12-01T10:33:39.559Z,8.57
2022-12-01T10:36:10.022Z,8.40
2022-12-01T10:38:40.411Z,7.55
2022-12-01T10:41:15.144Z,7.65
2022-12-01T10:43:47.372Z,8.93
2022-12-01T10:46:22.123Z,8.18
2022-12-01T10:48:55.558Z,7.70
2022-12-01T10:51:25.450Z,7.55
2022-12-01T10:54:01.314Z,7.28
2022-12-01T10:56:34.834Z,7.85
2022-12-01T10:59:06.670Z,7.60
2022-12-01T11:01:37.427Z,7.80
2022-12-01T11:04:09.440Z,7.90
2022-12-01T11:06:40.311Z,7.82
2022-12-01T11:09:10.939Z,7.57
2022-12-01T11:11:43.418Z,7.45
2022-12-01T11:14:19.898Z,7.65
2022-12-01T11:16:50.368Z,8.00
2022-12-01T11:19:31.354Z,7.30
2022-12-01T11:22:01.727Z,7.05
2022-12-01T11:24:33.019Z,7.22
2022-12-01T11:27:05.198Z,7.50
2022-12-01T11:29:36.876Z,7.22
2022-12-01T11:32:16.202Z,7.95
2022-12-01T11:34:51.147Z,6.82
2022-12-01T11:37:22.144Z,7.45
2022-12-01T11:39:53.022Z,6.82
2022-12-01T11:42:28.479Z,7.75
2022-12-01T11:44:58.936Z,7.55
2022-12-01T11:47:29.480Z,8.23
2022-12-01T11:50:00.352Z,7.78
2022-12-01T11:52:32.753Z,8.02
2022-12-01T11:55:09.672Z,7.80
2022-12-01T11:57:43.653Z,7.53
2022-12-01T12:00:16.839Z,6.85
2022-12-01T12:02:51.005Z,7.72
2022-12-01T12:05:42.404Z,7.13
2022-12-01T12:08:16.680Z,8.50
2022-12-01T12:10:52.538Z,7.95
2022-12-01T12:13:34.570Z,8.13
2022-12-01T12:16:09.697Z,8.10
2022-12-01T12:18:46.736Z,8.00
2022-12-01T12:21:23.485Z,7.28
2022-12-01T12:24:01.598Z,7.78
2022-12-01T12:26:32.405Z,7.10
2022-12-01T12:29:18.164Z,7.63
2022-12-01T12:31:54.541Z,7.18
2022-12-01T12:34:31.257Z,8.77
2022-12-01T12:37:04.732Z,7.45
2022-12-01T12:39:52.428Z,8.23
2022-12-01T12:42:27.683Z,8.02
2022-12-01T12:45:03.418Z,7.95
2022-12-01T12:47:48.351Z,6.90
2022-12-01T12:50:23.011Z,7.45
2022-12-01T12:52:54.503Z,8.15
2022-12-01T12:55:26.543Z,8.07
2022-12-01T12:57:58.069Z,8.00
2022-12-01T13:00:30.923Z,7.55
2022-12-01T13:03:02.218Z,7.47
2022-12-01T13:05:34.166Z,6.82
2022-12-01T13:08:06.220Z,7.38
2022-12-01T13:10:39.367Z,7.45
2022-12-01T13:13:16.412Z,7.45
2022-12-01T13:15:48.820Z,7.72
2022-12-01T13:18:22.816Z,7.15
2022-12-01T13:20:52.826Z,7.43
2022-12-01T13:23:22.730Z,7.28
2022-12-01T13:25:53.346Z,8.00
2022-12-01T13:28:24.634Z,7.78
2022-12-01T13:31:04.221Z,7.85
2022-12-01T13:33:34.676Z,7.38
2022-12-01T13:39:01.220Z,7.15
2022-12-01T13:41:32.444Z,7.07
2022-12-01T13:44:03.995Z,6.47
2022-12-01T13:46:53.194Z,6.32
2022-12-01T13:49:39.954Z,6.82
2022-12-01T13:52:36.199Z,6.18
2022-12-01T13:55:20.786Z,7.80
2022-12-01T13:57:51.554Z,6.60
2022-12-01T14:00:25.594Z,6.45
2022-12-01T14:03:10.313Z,6.88
2022-12-01T14:05:53.870Z,7.15
2022-12-01T14:08:25.159Z,6.55
2022-12-01T14:10:55.759Z,6.80
2022-12-01T14:13:25.835Z,7.55
2022-12-01T14:15:57.278Z,8.20
2022-12-01T14:18:33.842Z,7.47
2022-12-01T14:21:07.729Z,8.35
2022-12-01T14:23:38.095Z,7.05
2022-12-01T14:26:18.794Z,7.18
2022-12-01T14:29:03.324Z,7.40
2022-12-01T14:31:49.981Z,7.05
2022-12-01T14:34:20.315Z,7.10
2022-12-01T14:36:54.562Z,7.47
2022-12-01T14:39:25.752Z,6.45
2022-12-01T14:41:58.241Z,7.13
2022-12-01T14:44:29.530Z,7.05
2022-12-01T14:47:03.057Z,6.65
2022-12-01T14:49:35.285Z,7.28
2022-12-01T14:52:10.090Z,7.82
2022-12-01T14:54:45.399Z,8.25
2022-12-01T14:57:17.410Z,8.70
2022-12-01T14:59:47.256Z,8.80
2022-12-01T15:02:16.799Z,8.18
2022-12-01T15:05:01.201Z,8.05
2022-12-01T15:07:39.026Z,8.07
2022-12-01T15:10:09.626Z,7.72
2022-12-01T15:12:39.368Z,9.13
2022-12-01T15:15:20.945Z,8.80
2022-12-01T15:17:53.585Z,8.27
2022-12-01T15:20:33.723Z,8.50
2022-12-01T15:23:11.719Z,9.60
2022-12-01T15:25:44.043Z,8.25
2022-12-01T15:28:15.783Z,9.30
2022-12-01T15:30:46.126Z,8.40
2022-12-01T15:33:26.737Z,9.13
2022-12-01T15:35:57.605Z,8.52
2022-12-01T15:38:31.476Z,8.88
2022-12-01T15:43:57.385Z,9.15
2022-12-01T15:46:30.424Z,8.90
2022-12-01T15:49:10.895Z,8.40
2022-12-01T15:51:40.396Z,9.07
2022-12-01T15:54:20.236Z,8.13
2022-12-01T15:56:53.273Z,7.93
2022-12-01T15:59:28.167Z,7.78
2022-12-01T16:01:57.700Z,8.13
2022-12-01T16:04:28.050Z,7.95
2022-12-01T16:06:59.914Z,8.75
2022-12-01T16:09:34.547Z,7.47
2022-12-01T16:12:24.999Z,7.75
2022-12-01T16:14:58.438Z,7.82
2022-12-01T16:17:28.221Z,7.78
2022-12-01T16:20:12.559Z,8.35
2022-12-01T16:22:42.166Z,7.85
2022-12-01T16:25:21.335Z,8.15
2022-12-01T16:27:55.183Z,8.60
2022-12-01T16:30:26.000Z,8.23
2022-12-01T16:33:02.908Z,7.43
2022-12-01T16:35:33.878Z,7.13
2022-12-01T16:38:03.895Z,8.27
2022-12-01T16:40:35.982Z,7.45
2022-12-01T16:43:05.493Z,7.95
2022-12-01T16:45:34.918Z,8.15
2022-12-01T16:48:09.131Z,6.85
2022-12-01T16:50:39.280Z,7.28
2022-12-01T16:53:08.760Z,7.30
2022-12-01T16:55:44.531Z,6.70
2022-12-01T16:58:14.355Z,7.60
2022-12-01T17:00:43.855Z,7.43
2022-12-01T17:03:14.233Z,6.93
2022-12-01T17:05:43.789Z,7.78
2022-12-01T17:08:13.676Z,7.75
2022-12-01T17:10:46.839Z,6.85
2022-12-01T17:13:16.365Z,7.07
2022-12-01T17:15:46.300Z,7.85
2022-12-01T17:18:16.437Z,6.93
2022-12-01T17:20:46.256Z,8.18
2022-12-01T17:23:15.704Z,10.18
2022-12-01T17:25:47.829Z,9.85
2022-12-01T17:28:17.850Z,8.07
2022-12-01T17:30:47.440Z,7.47
2022-12-01T17:33:16.949Z,7.82
2022-12-01T17:35:46.441Z,8.30
2022-12-01T17:38:15.867Z,7.88
2022-12-01T17:40:47.928Z,7.50
2022-12-01T17:43:17.419Z,7.20
2022-12-01T17:45:46.854Z,7.47
2022-12-01T17:48:16.389Z,7.07
2022-12-01T17:50:45.837Z,7.10
2022-12-01T17:53:15.310Z,6.70
2022-12-01T17:55:44.756Z,7.00
2022-12-01T17:58:18.264Z,7.10
2022-12-01T18:00:47.792Z,7.18
2022-12-01T18:03:17.230Z,7.07
2022-12-01T18:05:46.806Z,6.45
2022-12-01T18:08:16.472Z,6.65
2022-12-01T18:10:45.994Z,7.38
2022-12-01T18:13:20.300Z,6.72
2022-12-01T18:15:51.046Z,7.35
2022-12-01T18:18:20.583Z,7.13
2022-12-01T18:20:50.041Z,7.45
2022-12-01T18:23:19.480Z,7.07
2022-12-01T18:25:49.106Z,6.03
2022-12-01T18:28:21.148Z,7.00
2022-12-01T18:30:51.031Z,6.90
2022-12-01T18:33:21.057Z,6.47
2022-12-01T18:35:50.511Z,7.25
2022-12-01T18:38:20.019Z,7.47
2022-12-01T18:40:49.526Z,6.20
2022-12-01T18:43:21.644Z,6.67
2022-12-01T18:45:51.152Z,6.60
2022-12-01T18:48:20.709Z,7.10
2022-12-01T18:50:52.709Z,7.53
2022-12-01T18:53:25.969Z,6.13
2022-12-01T18:55:55.502Z,6.03
2022-12-01T18:58:27.609Z,6.15
2022-12-01T19:00:57.257Z,5.82
2022-12-01T19:03:26.780Z,6.75
2022-12-01T19:05:56.249Z,5.97
2022-12-01T19:08:25.693Z,6.25
2022-12-01T19:11:01.045Z,6.43
2022-12-01T19:13:34.067Z,6.72
2022-12-01T19:16:07.953Z,6.00
2022-12-01T19:18:38.027Z,6.82
2022-12-01T19:21:09.810Z,6.82
2022-12-01T19:23:40.399Z,6.28
2022-12-01T19:26:11.322Z,6.78
2022-12-01T19:28:45.589Z,6.25
2022-12-01T19:31:17.628Z,5.93
2022-12-01T19:33:47.380Z,6.55
2022-12-01T19:36:18.953Z,6.72
2022-12-01T19:38:49.427Z,7.05
2022-12-01T19:41:20.528Z,7.22
2022-12-01T19:43:54.183Z,5.95
2022-12-01T19:46:25.001Z,7.90
2022-12-01T19:48:58.827Z,7.30
2022-12-01T19:51:29.441Z,7.10
2022-12-01T19:53:59.418Z,6.38
2022-12-01T19:56:29.009Z,6.68
2022-12-01T19:59:02.152Z,6.18
2022-12-01T20:01:31.784Z,5.72
2022-12-01T20:04:01.415Z,7.13
2022-12-01T20:06:31.798Z,6.78
2022-12-01T20:09:02.135Z,5.97
2022-12-01T20:11:33.046Z,6.28
2022-12-01T20:14:05.841Z,6.15
2022-12-01T20:16:35.517Z,6.63
2022-12-01T20:19:05.702Z,6.40
2022-12-01T20:21:36.210Z,6.40
2022-12-01T20:24:07.181Z,6.93
2022-12-01T20:26:38.766Z,7.67
2022-12-01T20:29:11.885Z,7.43
2022-12-01T20:31:42.072Z,7.63
2022-12-01T20:34:13.001Z,7.33
2022-12-01T20:36:43.386Z,7.23
2022-12-01T20:39:13.961Z,6.37
2022-12-01T20:41:43.634Z,6.78
2022-12-01T20:44:16.052Z,6.90
2022-12-01T20:46:47.630Z,7.50
2022-12-01T20:49:18.512Z,7.00
2022-12-01T20:51:48.109Z,7.67
2022-12-01T20:54:33.783Z,7.40
2022-12-01T20:57:03.458Z,7.80
2022-12-01T20:59:37.245Z,7.83
2022-12-01T21:02:07.030Z,7.07
2022-12-01T21:04:36.613Z,7.20
2022-12-01T21:07:06.158Z,8.57
2022-12-01T21:09:35.685Z,6.87
2022-12-01T21:12:18.102Z,7.27
2022-12-01T21:14:51.611Z,7.10
2022-12-01T21:17:28.579Z,7.07
2022-12-01T21:20:01.726Z,8.13
2022-12-01T21:22:31.373Z,7.27
2022-12-01T21:25:04.821Z,7.20
2022-12-01T21:27:35.200Z,6.77
2022-12-01T21:30:08.198Z,7.20
2022-12-01T21:32:42.550Z,6.97
2022-12-01T21:35:17.645Z,7.23
2022-12-01T21:37:47.391Z,6.97
2022-12-01T21:40:18.617Z,6.17
2022-12-01T21:42:48.344Z,6.70
2022-12-01T21:45:27.599Z,7.23
2022-12-01T21:48:00.173Z,6.93
2022-12-01T21:50:30.179Z,7.20
2022-12-01T21:53:01.221Z,6.90
2022-12-01T21:55:35.967Z,6.17
2022-12-01T21:58:14.932Z,6.87
2022-12-01T22:00:47.955Z,7.83
2022-12-01T22:03:29.240Z,7.27
2022-12-01T22:08:54.360Z,7.17
2022-12-01T22:11:24.744Z,7.33
2022-12-01T22:13:56.359Z,6.40
2022-12-01T22:16:31.583Z,7.40
2022-12-01T22:19:02.159Z,7.83
2022-12-01T22:21:35.777Z,7.40
2022-12-01T22:24:16.436Z,8.17
2022-12-01T22:26:48.209Z,7.30
2022-12-01T22:29:26.065Z,7.57
2022-12-01T22:32:03.011Z,7.37
2022-12-01T22:34:36.280Z,6.43
2022-12-01T22:37:05.900Z,7.43
2022-12-01T22:39:36.172Z,7.00
2022-12-01T22:42:10.597Z,6.33
2022-12-01T22:44:41.553Z,6.20
2022-12-01T22:47:14.927Z,7.60
2022-12-01T22:49:45.037Z,7.30
2022-12-01T22:52:18.282Z,6.97
2022-12-01T22:54:49.410Z,7.83
2022-12-01T22:57:31.308Z,7.47
2022-12-01T23:00:01.099Z,7.00
2022-12-01T23:02:35.369Z,5.80
2022-12-01T23:05:17.257Z,6.20
2022-12-01T23:07:47.079Z,6.40
2022-12-01T23:10:18.764Z,6.97
2022-12-01T23:12:49.020Z,6.50
2022-12-01T23:15:24.429Z,7.20
2022-12-01T23:17:56.708Z,7.40
2022-12-01T23:20:31.493Z,6.83
2022-12-01T23:23:02.293Z,6.87
2022-12-01T23:25:32.043Z,7.93
2022-12-01T23:28:02.968Z,6.73
2022-12-01T23:30:32.671Z,6.90
2022-12-01T23:33:20.129Z,8.10
2022-12-01T23:35:51.734Z,6.73
2022-12-01T23:38:22.232Z,6.75
2022-12-01T23:40:52.136Z,7.23
2022-12-01T23:43:23.198Z,6.67
2022-12-01T23:45:54.034Z,6.67
2022-12-01T23:48:28.239Z,6.87
2022-12-01T23:50:57.861Z,7.13
2022-12-01T23:53:29.292Z,6.37
2022-12-01T23:55:59.382Z,6.20
2022-12-01T23:58:29.341Z,6.83
